Pagrindinis puslapis
METAR-TAF:

METAR-TAF

Oro uostai :

Tokatas, Turkija

platuma: 40-18N, ilguma: 036-34E, Aukštis: 608 m

Dabartinis oras

Ataskaita buvo paskelbta 1 valandą ir 11 minutes, ne 12:50 UTC
Vėjas 4 kt iš Šiaurės/Šiaurės Rytų, svyruoja nuo Šiaurės/Šiaurės Vakarų ir Rytų/Šiaurės Rytų
Temperatūra 26°C
Drėgmė 24%
Slėgis 1009 hPa
Matomumas 10 km arba daugiau
Mažai debesys ne aukštis 4000 ft

METAR: LTAW 121250Z 03004KT 340V060 9999 FEW040 26/04 Q1009

Laikas: 17:01 (14:01 UTC)

Prognozė

Ataskaita buvo paskelbta 3 valandos ir 21 minutes, ne 10:40 UTC
Prognozė galioja nuo 12 metu 12 UTC su 12 metu 21 UTC
Vėjas 2 kt nuo kintamojo kryptimis
Matomumas 10 km arba daugiau
nėra debesų žemiau 1500 m ir nėra kamuolinių lietaus debesų

TAF: LTAW 121040Z 1212/1221 VRB02KT CAVOK

Orai ataskaitas ir orų prognozės (METAR, TAF).

turimą stotys yra geltonos ir raudonos taškus žemėlapyje.

Perkelti pele per norėdami pamatyti stoties vardą.

Tada spustelėkite, norėdami matyti oro stebėjimo ir prognozės.

Norėdami pakeisti žemėlapį: spustelėkite ant žalios mygtukų su juodo kryžiaus žemyn,; žalią mygtuką su brūkšneliu, jei norite nutolinti; arba žalių rodyklių gretimoms žemėlapius.


METAR-TAF: